Time;durP1;ratioP1;P1;durP2;ratioP2;P2;SDS_P1;SDS_P2;PMS_P1;PMS_P2;Temp;Humidity;BMP_temperature;BMP_pressure;BME280_temperature;BME280_humidity;BME280_pressure;Samples;Min_cycle;Max_cycle;Signal;HPM_P1;HPM_P2
2023/12/17 00:00:28;;;;;;;15.93;15.33;;;3.10;99.90;;;;;;5072117;28;20717;-63
2023/12/17 00:02:54;;;;;;;15.70;15.10;;;3.10;99.90;;;;;;5073018;28;20211;-63
2023/12/17 00:05:21;;;;;;;16.63;16.03;;;3.00;99.90;;;;;;5073128;28;20202;-63
2023/12/17 00:07:48;;;;;;;16.83;16.23;;;2.90;99.90;;;;;;5074371;28;20227;-63
2023/12/17 00:10:14;;;;;;;15.87;15.27;;;2.90;99.90;;;;;;5074355;28;20199;-63
2023/12/17 00:12:42;;;;;;;15.97;15.37;;;2.90;99.90;;;;;;5073427;28;20219;-62
2023/12/17 00:15:10;;;;;;;16.03;15.43;;;3.00;99.90;;;;;;5073032;28;20203;-62
2023/12/17 00:17:36;;;;;;;14.60;14.00;;;3.00;99.90;;;;;;5072810;28;20227;-63
2023/12/17 00:20:03;;;;;;;15.00;14.50;;;3.10;99.90;;;;;;5072939;28;20682;-63
2023/12/17 00:22:30;;;;;;;14.43;13.93;;;3.10;99.90;;;;;;5080773;28;20210;-64
2023/12/17 00:24:57;;;;;;;14.27;13.77;;;3.20;99.90;;;;;;5083398;28;20231;-63
2023/12/17 00:27:24;;;;;;;14.87;14.27;;;3.20;99.90;;;;;;5082070;28;20211;-63
2023/12/17 00:29:52;;;;;;;13.80;13.30;;;3.20;99.90;;;;;;5082091;28;20231;-63
2023/12/17 00:32:19;;;;;;;13.70;13.20;;;3.20;99.90;;;;;;5075302;28;20210;-64
2023/12/17 00:34:45;;;;;;;15.60;15.00;;;3.20;99.90;;;;;;5071954;28;20780;-64
2023/12/17 00:37:12;;;;;;;14.27;13.77;;;3.20;99.90;;;;;;5072434;28;20218;-64
2023/12/17 00:39:39;;;;;;;14.47;13.97;;;3.20;99.90;;;;;;5072316;28;20572;-63
2023/12/17 00:42:06;;;;;;;13.97;13.47;;;3.20;99.90;;;;;;5071005;28;20662;-63
2023/12/17 00:44:32;;;;;;;13.90;13.40;;;3.20;99.90;;;;;;5072161;28;20199;-63
2023/12/17 00:47:02;;;;;;;14.50;14.00;;;3.20;99.90;;;;;;5071890;28;20205;-64
2023/12/17 00:49:29;;;;;;;13.47;12.97;;;3.20;99.90;;;;;;5071576;28;20640;-63
2023/12/17 00:51:55;;;;;;;14.03;13.53;;;3.20;99.90;;;;;;5067096;28;20203;-63
2023/12/17 00:54:22;;;;;;;13.57;13.07;;;3.10;99.90;;;;;;5075787;28;20215;-63
2023/12/17 00:56:49;;;;;;;14.20;13.70;;;3.10;99.90;;;;;;5080599;28;20213;-62
2023/12/17 00:59:15;;;;;;;13.70;13.20;;;3.10;99.90;;;;;;5073115;28;20215;-64
2023/12/17 01:01:42;;;;;;;15.50;14.90;;;3.10;99.90;;;;;;5069118;28;20203;-62
2023/12/17 01:04:10;;;;;;;15.47;14.90;;;3.10;99.90;;;;;;5067933;28;20225;-62
2023/12/17 01:06:38;;;;;;;15.97;15.37;;;3.00;99.90;;;;;;5071422;28;20720;-63
2023/12/17 01:09:04;;;;;;;14.73;14.23;;;3.00;99.90;;;;;;5072132;28;20238;-62
2023/12/17 01:11:31;;;;;;;16.03;15.43;;;3.00;99.90;;;;;;5071320;28;20204;-63
2023/12/17 01:13:58;;;;;;;15.83;15.23;;;2.90;99.90;;;;;;5070176;28;20210;-63
2023/12/17 01:16:25;;;;;;;15.60;15.00;;;2.90;99.90;;;;;;5071495;28;20709;-63
2023/12/17 01:18:52;;;;;;;14.63;14.13;;;2.90;99.90;;;;;;5063916;28;20297;-63
2023/12/17 01:21:20;;;;;;;15.10;14.53;;;2.90;99.90;;;;;;5070157;28;20227;-62
2023/12/17 01:23:46;;;;;;;14.80;14.30;;;2.90;99.90;;;;;;5071662;28;20211;-63
2023/12/17 01:26:19;;;;;;;15.47;14.87;;;2.90;99.90;;;;;;5073600;28;20215;-64
2023/12/17 01:28:45;;;;;;;13.80;13.30;;;2.90;99.90;;;;;;5071481;28;20223;-64
2023/12/17 01:31:12;;;;;;;14.00;13.50;;;2.90;99.90;;;;;;5068848;28;20199;-63
2023/12/17 01:33:39;;;;;;;14.33;13.83;;;2.90;99.90;;;;;;5067095;28;20563;-64
2023/12/17 01:36:06;;;;;;;14.10;13.60;;;2.90;99.90;;;;;;5072212;28;20572;-64
2023/12/17 01:38:34;;;;;;;14.20;13.70;;;3.00;99.90;;;;;;5071743;28;20632;-63
2023/12/17 01:41:01;;;;;;;14.20;13.70;;;3.00;99.90;;;;;;5072474;28;20206;-63
2023/12/17 01:43:28;;;;;;;14.43;13.87;;;3.00;99.90;;;;;;5072609;28;20234;-63
2023/12/17 01:45:55;;;;;;;15.87;15.27;;;2.90;99.90;;;;;;5073124;28;20210;-64
2023/12/17 01:48:22;;;;;;;15.47;14.87;;;2.90;99.90;;;;;;5073607;28;20723;-64
2023/12/17 01:50:50;;;;;;;16.00;15.40;;;2.80;99.90;;;;;;5073095;28;20218;-64
2023/12/17 01:53:17;;;;;;;14.50;14.00;;;2.80;99.90;;;;;;5072684;28;20229;-64
2023/12/17 01:55:46;;;;;;;15.07;14.47;;;2.80;99.90;;;;;;5071361;28;20214;-64
2023/12/17 01:58:15;;;;;;;14.87;14.37;;;2.80;99.90;;;;;;5065033;28;20243;-62
2023/12/17 02:00:42;;;;;;;15.97;15.30;;;2.80;99.90;;;;;;5071100;28;20199;-64
2023/12/17 02:03:09;;;;;;;15.23;14.67;;;2.80;99.90;;;;;;5070992;28;20218;-62
2023/12/17 02:05:36;;;;;;;14.33;13.73;;;2.90;99.90;;;;;;5066762;28;20207;-64
2023/12/17 02:08:04;;;;;;;14.77;14.27;;;2.90;99.90;;;;;;5070792;28;20226;-63
2023/12/17 02:10:31;;;;;;;15.83;15.23;;;2.90;99.90;;;;;;5062684;28;20300;-63
2023/12/17 02:13:11;;;;;;;14.77;14.27;;;2.90;99.90;;;;;;5066766;28;20203;-63
2023/12/17 02:15:38;;;;;;;14.80;14.30;;;2.90;99.90;;;;;;5069554;28;20218;-63
2023/12/17 02:18:05;;;;;;;14.53;14.03;;;2.90;99.90;;;;;;5072450;28;20306;-63
2023/12/17 02:20:34;;;;;;;15.40;14.80;;;2.90;99.90;;;;;;5070924;28;20606;-63
2023/12/17 02:23:03;;;;;;;14.50;14.00;;;2.90;99.90;;;;;;5067753;28;20203;-63
2023/12/17 02:25:31;;;;;;;15.40;14.80;;;2.90;99.90;;;;;;5074676;28;20230;-62
2023/12/17 02:27:58;;;;;;;15.80;15.20;;;2.90;99.90;;;;;;5071985;28;20223;-62
2023/12/17 02:30:25;;;;;;;14.93;14.43;;;2.90;99.90;;;;;;5074632;28;20223;-62
2023/12/17 02:32:52;;;;;;;14.90;14.40;;;2.90;99.90;;;;;;5079466;28;20214;-64
2023/12/17 02:35:18;;;;;;;15.93;15.33;;;2.80;99.90;;;;;;5079966;28;20620;-64
2023/12/17 02:37:45;;;;;;;14.03;13.53;;;2.80;99.90;;;;;;5076154;28;20237;-63
2023/12/17 02:40:13;;;;;;;16.03;15.43;;;2.80;99.90;;;;;;5075409;28;20226;-63
2023/12/17 02:42:40;;;;;;;15.13;14.53;;;2.80;99.90;;;;;;5073868;28;20290;-62
2023/12/17 02:45:08;;;;;;;15.93;15.33;;;2.70;99.90;;;;;;5074836;28;20196;-64
2023/12/17 02:47:35;;;;;;;15.33;14.73;;;2.70;99.90;;;;;;5074571;28;20231;-63
2023/12/17 02:50:02;;;;;;;15.10;14.53;;;2.70;99.90;;;;;;5073313;28;20226;-63
2023/12/17 02:52:29;;;;;;;15.30;14.77;;;2.60;99.90;;;;;;5070522;28;20588;-64
2023/12/17 02:54:56;;;;;;;15.97;15.37;;;2.60;99.90;;;;;;5072300;28;20218;-64
2023/12/17 02:57:24;;;;;;;16.13;15.53;;;2.60;99.90;;;;;;5075831;28;20203;-63
2023/12/17 02:59:52;;;;;;;16.10;15.50;;;2.60;99.90;;;;;;5074812;28;20203;-62
2023/12/17 03:02:18;;;;;;;16.33;15.73;;;2.70;99.90;;;;;;5074322;28;20571;-63
2023/12/17 03:04:45;;;;;;;16.67;16.00;;;2.70;99.90;;;;;;5074935;28;20214;-63
2023/12/17 03:07:12;;;;;;;15.43;14.83;;;2.70;99.90;;;;;;5074003;28;20583;-63
2023/12/17 03:09:38;;;;;;;16.77;16.13;;;2.70;99.90;;;;;;5073743;28;20593;-63
2023/12/17 03:12:06;;;;;;;16.53;15.93;;;2.70;99.90;;;;;;5074176;28;20226;-64
2023/12/17 03:14:34;;;;;;;16.73;16.03;;;2.70;99.90;;;;;;5074784;28;20210;-64
2023/12/17 03:17:01;;;;;;;15.93;15.33;;;2.70;99.90;;;;;;5075174;28;20606;-62
2023/12/17 03:19:28;;;;;;;15.97;15.37;;;2.70;99.90;;;;;;5075406;28;20225;-62
2023/12/17 03:21:55;;;;;;;15.87;15.27;;;2.60;99.90;;;;;;5074706;28;20215;-62
2023/12/17 03:24:21;;;;;;;14.80;14.23;;;2.50;99.90;;;;;;5076130;28;20210;-62
2023/12/17 03:26:52;;;;;;;15.10;14.50;;;2.50;99.90;;;;;;5076645;28;20210;-62
2023/12/17 03:29:21;;;;;;;14.43;13.93;;;2.50;99.90;;;;;;5076971;28;20686;-63
2023/12/17 03:31:49;;;;;;;15.40;14.80;;;2.40;99.90;;;;;;5077779;28;20632;-63
2023/12/17 03:34:16;;;;;;;14.60;14.07;;;2.50;99.90;;;;;;5078626;28;20564;-62
2023/12/17 03:36:44;;;;;;;15.37;14.77;;;2.40;99.90;;;;;;5079172;28;20203;-62
2023/12/17 03:39:13;;;;;;;13.40;12.90;;;2.50;99.90;;;;;;5080666;28;20219;-62
2023/12/17 03:41:40;;;;;;;14.53;13.97;;;2.40;99.90;;;;;;5082011;28;20218;-63
2023/12/17 03:44:07;;;;;;;14.37;13.87;;;2.50;99.90;;;;;;5083154;28;20591;-63
2023/12/17 03:46:34;;;;;;;13.57;13.07;;;2.50;99.90;;;;;;5082923;28;20207;-62
2023/12/17 03:49:02;;;;;;;14.50;14.00;;;2.60;99.90;;;;;;5081225;28;20223;-63
2023/12/17 03:51:30;;;;;;;14.43;13.90;;;2.60;99.90;;;;;;5079901;28;20211;-64
2023/12/17 03:53:57;;;;;;;13.47;12.97;;;2.60;99.90;;;;;;5075862;28;20211;-63
2023/12/17 03:56:24;;;;;;;14.97;14.43;;;2.60;99.90;;;;;;5074513;28;20208;-62
2023/12/17 03:58:51;;;;;;;15.00;14.43;;;2.60;99.90;;;;;;5074617;28;20223;-63
2023/12/17 04:01:20;;;;;;;16.10;15.50;;;2.70;99.90;;;;;;5074471;28;20586;-63
2023/12/17 04:03:47;;;;;;;15.00;14.40;;;2.70;99.90;;;;;;5069180;28;20207;-62
2023/12/17 04:06:15;;;;;;;14.60;13.90;;;2.70;99.90;;;;;;5073112;28;20203;-63
2023/12/17 04:08:42;;;;;;;15.00;14.40;;;2.70;99.90;;;;;;5072395;28;20223;-64
2023/12/17 04:11:09;;;;;;;15.40;14.90;;;2.70;99.90;;;;;;5069832;28;20234;-64
2023/12/17 04:13:35;;;;;;;16.70;16.00;;;2.70;99.90;;;;;;5079887;28;20642;-61
2023/12/17 04:16:02;;;;;;;15.57;15.00;;;2.70;99.90;;;;;;5074672;28;20203;-63
2023/12/17 04:18:29;;;;;;;16.03;15.43;;;2.70;99.90;;;;;;5075668;28;20233;-64
2023/12/17 04:20:55;;;;;;;15.90;15.30;;;2.70;99.90;;;;;;5076633;28;20651;-62
2023/12/17 04:23:23;;;;;;;15.33;14.73;;;2.70;99.90;;;;;;5075771;28;20213;-63
2023/12/17 04:25:50;;;;;;;14.93;14.40;;;2.70;99.90;;;;;;5076178;28;20211;-64
2023/12/17 04:28:17;;;;;;;14.87;14.37;;;2.60;99.90;;;;;;5072842;28;20219;-63
2023/12/17 04:30:43;;;;;;;14.87;14.33;;;2.60;99.90;;;;;;5073699;28;20223;-64
2023/12/17 04:33:10;;;;;;;14.63;14.13;;;2.60;99.90;;;;;;5073285;28;20199;-63
2023/12/17 04:35:37;;;;;;;14.30;13.73;;;2.70;99.90;;;;;;5073018;28;20207;-63
2023/12/17 04:38:04;;;;;;;14.00;13.50;;;2.60;99.90;;;;;;5069830;28;20215;-62
2023/12/17 04:40:32;;;;;;;15.30;14.70;;;2.70;99.90;;;;;;5072617;28;20200;-63
2023/12/17 04:42:58;;;;;;;14.77;14.20;;;2.70;99.90;;;;;;5071802;28;20203;-63
2023/12/17 04:45:25;;;;;;;14.77;14.27;;;2.70;99.90;;;;;;5069342;28;20203;-63
2023/12/17 04:47:52;;;;;;;14.30;13.80;;;2.70;99.90;;;;;;5072255;28;20624;-63
2023/12/17 04:50:19;;;;;;;13.83;13.33;;;2.70;99.90;;;;;;5069487;28;20228;-63
2023/12/17 04:52:46;;;;;;;13.47;12.97;;;2.70;99.90;;;;;;5070987;28;20678;-63
2023/12/17 04:55:13;;;;;;;13.73;13.23;;;2.80;99.90;;;;;;5072293;28;20210;-63
2023/12/17 04:57:41;;;;;;;13.83;13.33;;;2.80;99.90;;;;;;5072227;28;20223;-62
2023/12/17 05:00:09;;;;;;;14.17;13.57;;;2.80;99.90;;;;;;5072152;28;20205;-62
2023/12/17 05:02:36;;;;;;;15.17;14.57;;;2.80;99.90;;;;;;5073252;28;20648;-63
2023/12/17 05:05:02;;;;;;;14.60;14.00;;;2.70;99.90;;;;;;5074042;28;20207;-64
2023/12/17 05:07:29;;;;;;;15.73;15.13;;;2.70;99.90;;;;;;5074218;28;20227;-63
2023/12/17 05:09:57;;;;;;;14.80;14.30;;;2.70;99.90;;;;;;5074002;28;20226;-63
2023/12/17 05:12:23;;;;;;;14.83;14.30;;;2.50;99.90;;;;;;5074184;28;20621;-64
2023/12/17 05:14:51;;;;;;;15.60;15.00;;;2.50;99.90;;;;;;5072895;28;20590;-63
2023/12/17 05:17:18;;;;;;;15.77;15.17;;;2.40;99.90;;;;;;5074720;28;20203;-63
2023/12/17 05:19:45;;;;;;;13.97;13.47;;;2.40;99.90;;;;;;5072259;28;20203;-63
2023/12/17 05:22:12;;;;;;;15.03;14.43;;;2.30;99.90;;;;;;5068977;28;20200;-63
2023/12/17 05:24:38;;;;;;;14.03;13.53;;;2.30;99.90;;;;;;5071554;28;20217;-63
2023/12/17 05:27:05;;;;;;;14.00;13.50;;;2.30;99.90;;;;;;5071436;28;20210;-64
2023/12/17 05:29:32;;;;;;;13.47;12.97;;;2.30;99.90;;;;;;5068835;28;20231;-64
2023/12/17 05:32:01;;;;;;;14.13;13.63;;;2.30;99.90;;;;;;5071280;28;20203;-63
2023/12/17 05:34:27;;;;;;;13.80;13.30;;;2.30;99.90;;;;;;5071717;28;20242;-64
2023/12/17 05:36:54;;;;;;;14.50;14.00;;;2.30;99.90;;;;;;5071662;28;20214;-63
2023/12/17 05:39:21;;;;;;;13.83;13.33;;;2.30;99.90;;;;;;5071472;28;20226;-63
2023/12/17 05:41:48;;;;;;;14.93;14.33;;;2.30;99.90;;;;;;5071047;28;20580;-62
2023/12/17 05:44:14;;;;;;;13.87;13.37;;;2.40;99.90;;;;;;5071623;28;20503;-63
2023/12/17 05:46:41;;;;;;;14.50;13.90;;;2.40;99.90;;;;;;5071809;28;20203;-63
2023/12/17 05:49:09;;;;;;;14.50;14.00;;;2.40;99.90;;;;;;5071128;28;20227;-63
2023/12/17 05:51:36;;;;;;;14.83;14.23;;;2.40;99.90;;;;;;5068791;28;20596;-61
2023/12/17 05:54:02;;;;;;;14.87;14.27;;;2.50;99.90;;;;;;5078704;28;20223;-66
2023/12/17 05:56:30;;;;;;;13.73;13.23;;;2.50;99.90;;;;;;5072964;28;20214;-65
2023/12/17 05:58:57;;;;;;;14.03;13.53;;;2.60;99.90;;;;;;5070063;28;20261;-67
2023/12/17 06:01:23;;;;;;;13.83;13.33;;;2.70;99.90;;;;;;5071227;28;20654;-66
2023/12/17 06:03:50;;;;;;;14.80;14.20;;;2.80;99.90;;;;;;5070652;28;20237;-67
2023/12/17 06:06:18;;;;;;;14.00;13.50;;;2.80;99.90;;;;;;5071465;28;20950;-66
2023/12/17 06:08:45;;;;;;;13.67;13.17;;;2.90;99.90;;;;;;5070505;28;20227;-67
2023/12/17 06:11:16;;;;;;;14.03;13.53;;;2.90;99.90;;;;;;5068756;28;20594;-67
2023/12/17 06:13:42;;;;;;;12.97;12.47;;;2.90;99.90;;;;;;5069630;28;20208;-62
2023/12/17 06:16:09;;;;;;;14.23;13.63;;;2.80;99.90;;;;;;5071104;28;20227;-62
2023/12/17 06:18:36;;;;;;;14.20;13.70;;;2.80;99.90;;;;;;5071550;28;20230;-63
2023/12/17 06:21:03;;;;;;;14.03;13.53;;;2.80;99.90;;;;;;5070547;28;20584;-62
2023/12/17 06:23:32;;;;;;;14.63;14.10;;;2.70;99.90;;;;;;5070527;28;20206;-64
2023/12/17 06:26:00;;;;;;;15.37;14.77;;;2.70;99.90;;;;;;5065325;28;20210;-64
2023/12/17 06:28:27;;;;;;;14.73;14.13;;;2.60;99.90;;;;;;5070547;28;20453;-62
2023/12/17 06:30:54;;;;;;;14.23;13.57;;;2.60;99.90;;;;;;5070340;28;20222;-63
2023/12/17 06:33:21;;;;;;;15.30;14.70;;;3.00;99.90;;;;;;5070319;28;20195;-65
2023/12/17 06:35:47;;;;;;;15.13;14.53;;;4.00;99.90;;;;;;5069942;28;20203;-63
2023/12/17 06:38:14;;;;;;;13.27;12.73;;;4.90;99.90;;;;;;5070737;28;20222;-64
2023/12/17 06:40:42;;;;;;;12.80;12.30;;;5.50;99.90;;;;;;5070406;28;20199;-63
2023/12/17 06:43:09;;;;;;;11.50;11.10;;;5.40;99.90;;;;;;5070425;28;20575;-64
2023/12/17 06:45:35;;;;;;;11.07;10.67;;;4.90;99.90;;;;;;5068184;28;20220;-64
2023/12/17 06:48:02;;;;;;;11.13;10.73;;;4.70;99.90;;;;;;5068042;28;20219;-64
2023/12/17 06:50:29;;;;;;;12.20;11.70;;;4.50;99.90;;;;;;5069674;28;20747;-65
2023/12/17 06:52:56;;;;;;;11.10;10.70;;;4.40;99.90;;;;;;5070244;28;20219;-63
2023/12/17 06:55:22;;;;;;;10.90;10.50;;;4.80;99.90;;;;;;5070462;28;20207;-65
2023/12/17 06:57:50;;;;;;;11.57;11.17;;;5.20;99.90;;;;;;5070461;28;20227;-65
2023/12/17 07:00:18;;;;;;;10.77;10.37;;;5.60;99.90;;;;;;5068498;28;20597;-64
2023/12/17 07:02:45;;;;;;;12.17;11.77;;;6.10;99.90;;;;;;5070294;28;20214;-64
2023/12/17 07:05:12;;;;;;;12.70;12.20;;;6.30;99.90;;;;;;5069863;28;20215;-64
2023/12/17 07:07:38;;;;;;;11.07;10.67;;;6.60;99.90;;;;;;5070330;28;20250;-64
2023/12/17 07:10:07;;;;;;;11.30;10.90;;;6.60;99.90;;;;;;5069939;28;20667;-64
2023/12/17 07:12:34;;;;;;;11.93;11.53;;;6.80;99.90;;;;;;5064466;28;20239;-64
2023/12/17 07:15:02;;;;;;;10.93;10.53;;;6.90;99.90;;;;;;5069857;28;20212;-66
2023/12/17 07:17:28;;;;;;;10.63;10.23;;;6.50;99.90;;;;;;5073750;28;20583;-65
2023/12/17 07:19:55;;;;;;;11.73;11.33;;;6.40;99.90;;;;;;5074216;28;20210;-64
2023/12/17 07:22:22;;;;;;;11.20;10.80;;;6.30;99.90;;;;;;5073530;28;20192;-64
2023/12/17 07:24:49;;;;;;;11.40;11.00;;;7.10;99.90;;;;;;5075956;28;20555;-64
2023/12/17 07:27:16;;;;;;;11.23;10.83;;;7.70;99.90;;;;;;5079419;28;20195;-64
2023/12/17 07:29:43;;;;;;;11.20;10.80;;;8.00;99.90;;;;;;5081943;28;20230;-64
2023/12/17 07:32:11;;;;;;;11.47;11.07;;;8.40;99.90;;;;;;5083001;28;20222;-65
2023/12/17 07:34:38;;;;;;;11.87;11.47;;;8.50;99.90;;;;;;5082471;28;20199;-65
2023/12/17 07:37:05;;;;;;;11.90;11.50;;;8.70;99.90;;;;;;5078866;28;20376;-66
2023/12/17 07:39:31;;;;;;;11.30;10.90;;;7.60;99.90;;;;;;5083161;28;20229;-67
2023/12/17 07:41:58;;;;;;;12.13;11.73;;;6.40;99.90;;;;;;5073338;28;20196;-66
2023/12/17 07:44:27;;;;;;;10.77;10.37;;;5.50;99.90;;;;;;5075123;28;20195;-66
2023/12/17 07:46:53;;;;;;;12.00;11.60;;;4.80;99.90;;;;;;5074441;28;20211;-67
2023/12/17 07:49:21;;;;;;;12.93;12.43;;;4.40;99.90;;;;;;5072774;28;20242;-66
2023/12/17 07:51:49;;;;;;;12.60;12.10;;;4.10;99.90;;;;;;5073728;28;20219;-66
2023/12/17 07:54:16;;;;;;;11.70;11.30;;;3.80;99.90;;;;;;5073616;28;20245;-69
2023/12/17 07:56:43;;;;;;;12.50;12.00;;;3.70;99.90;;;;;;5073957;28;20214;-66
2023/12/17 07:59:10;;;;;;;11.60;11.20;;;3.60;99.90;;;;;;5073892;28;20261;-68
2023/12/17 08:01:36;;;;;;;12.40;11.90;;;3.50;99.90;;;;;;5073501;28;20202;-66
2023/12/17 08:04:04;;;;;;;11.90;11.50;;;3.40;99.90;;;;;;5074151;28;20206;-67
2023/12/17 08:06:32;;;;;;;13.30;12.80;;;3.40;99.90;;;;;;5073842;28;20682;-67
2023/12/17 08:08:59;;;;;;;12.67;12.17;;;3.40;99.90;;;;;;5070929;28;20227;-67
2023/12/17 08:11:25;;;;;;;12.13;11.63;;;3.40;99.90;;;;;;5073179;28;20227;-66
2023/12/17 08:13:53;;;;;;;12.20;11.70;;;3.50;99.90;;;;;;5071884;28;20218;-66
2023/12/17 08:16:19;;;;;;;11.57;11.17;;;3.50;99.90;;;;;;5073193;28;20208;-66
2023/12/17 08:18:46;;;;;;;11.40;11.00;;;3.60;99.90;;;;;;5072941;28;20737;-67
2023/12/17 08:21:13;;;;;;;11.47;11.07;;;3.60;99.90;;;;;;5071114;28;20225;-66
2023/12/17 08:23:41;;;;;;;11.83;11.43;;;3.70;99.90;;;;;;5072467;28;20674;-67
2023/12/17 08:26:07;;;;;;;11.87;11.47;;;3.80;99.90;;;;;;5071130;28;20215;-67
2023/12/17 08:28:35;;;;;;;12.23;11.80;;;3.80;99.90;;;;;;5074437;28;20230;-67
2023/12/17 08:31:04;;;;;;;11.97;11.57;;;3.90;99.90;;;;;;5074408;28;20318;-66
2023/12/17 08:33:32;;;;;;;12.17;11.67;;;3.90;99.90;;;;;;5072673;28;20396;-66
2023/12/17 08:35:59;;;;;;;11.40;11.00;;;3.90;99.90;;;;;;5070884;28;20669;-65
2023/12/17 08:38:25;;;;;;;11.87;11.43;;;4.10;99.90;;;;;;5073758;28;20223;-65
2023/12/17 08:40:54;;;;;;;12.00;11.50;;;4.20;99.90;;;;;;5072154;28;20218;-68
2023/12/17 08:43:21;;;;;;;12.37;11.87;;;4.30;99.90;;;;;;5068511;28;20202;-67
2023/12/17 08:45:48;;;;;;;13.30;12.73;;;4.40;99.90;;;;;;5071113;28;20881;-65
2023/12/17 08:48:14;;;;;;;13.43;12.93;;;4.30;99.90;;;;;;5068393;28;20231;-67
2023/12/17 08:50:41;;;;;;;14.03;13.43;;;4.20;99.90;;;;;;5070662;28;20203;-67
2023/12/17 08:53:08;;;;;;;13.73;13.13;;;4.10;99.90;;;;;;5069886;28;20215;-67
2023/12/17 08:55:34;;;;;;;13.53;13.03;;;3.90;99.90;;;;;;5070922;28;20601;-65
2023/12/17 08:58:03;;;;;;;13.60;13.00;;;3.80;99.90;;;;;;5072020;28;20219;-66
2023/12/17 09:00:29;;;;;;;16.67;15.93;;;3.60;99.90;;;;;;5071090;28;20211;-65
2023/12/17 09:02:56;;;;;;;16.33;15.63;;;3.30;99.90;;;;;;5077527;28;20211;-66
2023/12/17 09:05:23;;;;;;;16.63;15.93;;;3.10;99.90;;;;;;5083222;28;20204;-66
2023/12/17 09:07:49;;;;;;;16.53;15.73;;;3.00;99.90;;;;;;5079463;28;20227;-65
2023/12/17 09:10:16;;;;;;;18.17;17.37;;;2.80;99.90;;;;;;5075813;28;20203;-65
2023/12/17 09:12:43;;;;;;;19.20;18.00;;;2.60;99.90;;;;;;5075157;28;20227;-66
2023/12/17 09:15:11;;;;;;;17.60;16.90;;;2.60;99.90;;;;;;5073102;28;20662;-66
2023/12/17 09:17:37;;;;;;;18.03;17.33;;;2.50;99.90;;;;;;5070023;28;20223;-66
2023/12/17 09:20:05;;;;;;;18.27;17.57;;;2.50;99.90;;;;;;5080807;28;20203;-65
2023/12/17 09:22:33;;;;;;;22.50;20.27;;;2.40;99.90;;;;;;5076272;28;20659;-67
2023/12/17 09:25:00;;;;;;;20.90;19.23;;;2.40;99.90;;;;;;5077148;28;20591;-65
2023/12/17 09:27:26;;;;;;;17.27;16.10;;;2.10;99.90;;;;;;5077401;28;20210;-65
2023/12/17 09:29:53;;;;;;;18.47;17.23;;;2.20;99.90;;;;;;5070812;28;20211;-65
2023/12/17 09:32:21;;;;;;;18.77;17.77;;;2.30;99.90;;;;;;5069044;28;20216;-65
2023/12/17 09:34:48;;;;;;;19.90;18.47;;;2.30;99.90;;;;;;5070478;28;20229;-65
2023/12/17 09:37:15;;;;;;;23.00;21.03;;;2.20;99.90;;;;;;5069283;28;20203;-65
2023/12/17 09:39:41;;;;;;;20.70;19.10;;;2.10;99.90;;;;;;5067320;28;20207;-66
2023/12/17 09:42:08;;;;;;;18.57;17.50;;;2.00;99.90;;;;;;5065369;28;20199;-65
2023/12/17 09:44:35;;;;;;;21.37;19.57;;;2.10;99.90;;;;;;5071309;28;20290;-66
2023/12/17 09:47:03;;;;;;;19.00;18.00;;;2.10;99.90;;;;;;5071205;28;20195;-65
2023/12/17 09:49:31;;;;;;;17.97;17.07;;;2.10;99.90;;;;;;5071183;28;20233;-66
2023/12/17 09:52:01;;;;;;;19.30;18.03;;;2.20;99.90;;;;;;5067557;28;20229;-67
2023/12/17 09:54:28;;;;;;;15.60;14.80;;;2.20;99.90;;;;;;5069568;28;20207;-67
2023/12/17 09:56:55;;;;;;;18.30;17.10;;;2.30;99.90;;;;;;5070630;28;20211;-65
2023/12/17 09:59:22;;;;;;;18.07;17.03;;;2.40;99.90;;;;;;5070529;28;20407;-66
2023/12/17 10:01:49;;;;;;;16.17;15.47;;;2.40;99.90;;;;;;5069486;28;20191;-65
2023/12/17 10:04:21;;;;;;;19.90;18.80;;;2.50;99.90;;;;;;5071705;28;20700;-65
2023/12/17 10:06:49;;;;;;;17.27;16.37;;;2.30;99.90;;;;;;5072169;28;20199;-66
2023/12/17 10:09:16;;;;;;;15.73;15.03;;;2.20;99.90;;;;;;5070566;28;20223;-66
2023/12/17 10:11:43;;;;;;;17.33;16.63;;;2.30;99.90;;;;;;5072233;28;20215;-65
2023/12/17 10:14:23;;;;;;;16.27;15.57;;;2.40;99.90;;;;;;5072167;28;20205;-67
2023/12/17 10:16:50;;;;;;;18.33;17.23;;;2.50;99.90;;;;;;5074108;28;20298;-65
2023/12/17 10:19:17;;;;;;;16.80;15.73;;;2.50;99.90;;;;;;5072764;28;20231;-65
2023/12/17 10:21:44;;;;;;;15.13;14.50;;;2.40;99.90;;;;;;5071502;28;20199;-66
2023/12/17 10:24:12;;;;;;;17.80;16.90;;;2.40;99.90;;;;;;5072014;28;20199;-66
2023/12/17 10:26:43;;;;;;;18.17;16.80;;;2.50;99.90;;;;;;5070891;28;20708;-67
2023/12/17 10:29:13;;;;;;;16.53;15.77;;;2.60;99.90;;;;;;5069925;28;20761;-65
2023/12/17 10:31:42;;;;;;;19.77;18.37;;;2.70;99.90;;;;;;5070468;28;20219;-64
2023/12/17 10:34:15;;;;;;;19.97;18.97;;;2.70;99.90;;;;;;5069722;28;20207;-66
2023/12/17 10:36:42;;;;;;;19.63;18.03;;;2.60;99.90;;;;;;5071324;28;20280;-64
2023/12/17 10:39:10;;;;;;;16.40;15.60;;;2.30;99.90;;;;;;5071265;28;20226;-66
2023/12/17 10:41:40;;;;;;;15.53;14.93;;;2.30;99.90;;;;;;5070850;28;20248;-67
2023/12/17 10:44:07;;;;;;;16.50;15.77;;;2.50;99.90;;;;;;5078550;28;20210;-65
2023/12/17 10:46:34;;;;;;;16.07;15.40;;;2.70;99.90;;;;;;5077065;28;20214;-66
2023/12/17 10:49:01;;;;;;;16.33;15.63;;;2.80;99.90;;;;;;5072308;28;20227;-64
2023/12/17 10:51:30;;;;;;;15.97;15.27;;;3.00;99.90;;;;;;5071535;28;20254;-65
2023/12/17 10:53:57;;;;;;;16.90;16.10;;;3.30;99.90;;;;;;5072007;28;20215;-67
2023/12/17 10:56:24;;;;;;;16.50;15.80;;;3.30;99.90;;;;;;5072618;28;20235;-65
2023/12/17 10:58:54;;;;;;;15.37;14.77;;;3.20;99.90;;;;;;5074912;28;20600;-66
2023/12/17 11:01:22;;;;;;;17.67;16.57;;;3.20;99.90;;;;;;5075085;28;20230;-65
2023/12/17 11:03:49;;;;;;;15.47;14.87;;;3.30;99.90;;;;;;5075153;28;20218;-64
2023/12/17 11:06:16;;;;;;;16.40;15.70;;;3.30;99.90;;;;;;5075104;28;20210;-63
2023/12/17 11:08:43;;;;;;;14.87;14.27;;;3.30;99.90;;;;;;5073041;28;20239;-66
2023/12/17 11:11:10;;;;;;;16.27;15.57;;;3.30;99.90;;;;;;5077874;28;20214;-65
2023/12/17 11:13:36;;;;;;;15.23;14.53;;;3.50;99.90;;;;;;5075361;28;20729;-65
2023/12/17 11:19:00;;;;;;;14.47;13.90;;;3.60;99.90;;;;;;5148275;27;20600;-66
2023/12/17 11:21:28;;;;;;;16.47;15.57;;;3.60;99.90;;;;;;5140098;27;20250;-63
2023/12/17 11:23:56;;;;;;;15.67;15.07;;;3.60;99.90;;;;;;5145932;27;20292;-64
2023/12/17 11:26:23;;;;;;;16.87;16.17;;;3.70;99.90;;;;;;5143081;27;20221;-64
2023/12/17 11:28:49;;;;;;;15.83;15.13;;;3.90;99.90;;;;;;5138084;27;20556;-65
2023/12/17 11:31:16;;;;;;;15.00;14.40;;;3.90;99.90;;;;;;5138335;27;20224;-64
2023/12/17 11:33:44;;;;;;;16.47;15.60;;;3.80;99.90;;;;;;5142673;27;20196;-65
2023/12/17 11:36:13;;;;;;;16.90;16.20;;;3.70;99.90;;;;;;5145925;27;20197;-66
2023/12/17 11:38:40;;;;;;;16.00;15.40;;;3.60;99.90;;;;;;5145953;27;20228;-66
2023/12/17 11:41:07;;;;;;;16.13;15.50;;;3.60;99.90;;;;;;5144808;27;20201;-66
2023/12/17 11:43:34;;;;;;;15.87;15.27;;;3.60;99.90;;;;;;5144462;27;20199;-66
2023/12/17 11:46:01;;;;;;;15.53;14.93;;;3.70;99.90;;;;;;5146604;27;20231;-67
2023/12/17 11:48:28;;;;;;;15.93;15.30;;;3.70;99.90;;;;;;5138832;27;20221;-66
2023/12/17 11:50:56;;;;;;;14.10;13.60;;;3.70;99.90;;;;;;5148883;27;20215;-66
2023/12/17 11:53:25;;;;;;;15.23;14.53;;;3.80;99.90;;;;;;5145518;27;20210;-67
2023/12/17 11:55:55;;;;;;;15.83;15.17;;;3.90;99.90;;;;;;5147100;27;20204;-67
2023/12/17 11:58:24;;;;;;;16.37;15.70;;;3.90;99.90;;;;;;5144585;27;20228;-67
2023/12/17 12:01:09;;;;;;;15.63;14.83;;;3.90;99.90;;;;;;5151703;27;20208;-66
2023/12/17 12:03:37;;;;;;;16.90;16.20;;;3.90;99.90;;;;;;5141243;27;20207;-66
2023/12/17 12:06:08;;;;;;;16.50;15.63;;;3.90;99.90;;;;;;5148172;27;20197;-66
2023/12/17 12:08:37;;;;;;;16.03;15.43;;;3.70;99.90;;;;;;5141934;27;20220;-64
2023/12/17 12:11:05;;;;;;;15.97;15.27;;;3.70;99.90;;;;;;5148078;27;20201;-67
2023/12/17 12:13:36;;;;;;;16.37;15.67;;;3.70;99.90;;;;;;5140187;27;20200;-66
2023/12/17 12:16:03;;;;;;;16.17;15.37;;;3.70;99.90;;;;;;5138786;27;20224;-66
2023/12/17 12:18:30;;;;;;;14.60;14.00;;;3.80;99.90;;;;;;5148622;27;20718;-65
2023/12/17 12:20:57;;;;;;;17.13;16.43;;;3.50;99.90;;;;;;5135182;27;20675;-66
2023/12/17 12:23:23;;;;;;;18.93;17.83;;;3.40;99.90;;;;;;5143958;27;20201;-64
2023/12/17 12:25:57;;;;;;;18.23;17.53;;;3.40;99.90;;;;;;5146322;27;20215;-64
2023/12/17 12:28:24;;;;;;;17.70;16.90;;;3.40;99.90;;;;;;5139084;27;20220;-64
2023/12/17 12:30:51;;;;;;;18.83;18.03;;;3.40;99.90;;;;;;5128764;27;20206;-65
2023/12/17 12:33:19;;;;;;;17.83;17.10;;;3.50;99.90;;;;;;5127092;27;20205;-65
2023/12/17 12:35:47;;;;;;;18.73;17.80;;;3.40;99.90;;;;;;5120851;27;20213;-64
2023/12/17 12:38:21;;;;;;;19.40;18.30;;;3.40;99.90;;;;;;5126983;27;20249;-65